createdAt,value
2023-05-05T00:01:54.326Z,75.70
2023-05-05T00:04:22.710Z,75.90
2023-05-05T00:06:50.561Z,75.90
2023-05-05T00:09:17.858Z,75.90
2023-05-05T00:11:44.757Z,75.80
2023-05-05T00:14:11.776Z,75.70
2023-05-05T00:16:38.704Z,75.80
2023-05-05T00:19:06.616Z,75.80
2023-05-05T00:21:33.505Z,75.90
2023-05-05T00:24:00.376Z,76.00
2023-05-05T00:26:27.303Z,76.30
2023-05-05T00:28:54.747Z,76.40
2023-05-05T00:31:22.842Z,76.80
2023-05-05T00:33:52.724Z,77.10
2023-05-05T00:36:19.744Z,77.40
2023-05-05T00:38:47.131Z,77.70
2023-05-05T00:41:14.124Z,77.80
2023-05-05T00:43:41.472Z,78.10
2023-05-05T00:46:25.152Z,78.10
2023-05-05T00:48:53.038Z,78.40
2023-05-05T00:51:21.751Z,78.80
2023-05-05T00:53:49.419Z,79.20
2023-05-05T00:56:19.492Z,79.70
2023-05-05T00:58:46.776Z,80.40
2023-05-05T01:01:14.520Z,80.90
2023-05-05T01:03:42.122Z,81.90
2023-05-05T01:06:49.847Z,82.60
2023-05-05T01:09:42.968Z,83.50
2023-05-05T01:13:10.659Z,84.50
2023-05-05T01:16:07.738Z,85.40
2023-05-05T01:18:46.881Z,86.90
2023-05-05T01:21:26.982Z,87.70
2023-05-05T01:24:06.562Z,88.70
2023-05-05T01:26:51.254Z,89.80
2023-05-05T01:29:49.520Z,90.90
2023-05-05T01:32:24.852Z,92.10
2023-05-05T01:35:01.274Z,93.70
2023-05-05T01:37:43.106Z,95.10
2023-05-05T01:40:14.749Z,97.20
2023-05-05T01:42:44.346Z,98.60
2023-05-05T01:45:15.694Z,99.20
2023-05-05T01:47:44.685Z,99.50
2023-05-05T01:50:13.720Z,99.90
2023-05-05T01:52:42.980Z,99.90
2023-05-05T01:55:11.518Z,99.90
2023-05-05T01:57:41.819Z,99.90
2023-05-05T02:00:11.471Z,99.90
2023-05-05T02:02:50.187Z,99.90
2023-05-05T02:05:21.887Z,99.90
2023-05-05T02:07:52.383Z,99.90
2023-05-05T02:10:19.401Z,99.90
2023-05-05T02:12:47.848Z,99.90
2023-05-05T02:15:16.873Z,99.90
2023-05-05T02:17:45.197Z,99.90
2023-05-05T02:20:14.627Z,99.90
2023-05-05T02:22:41.784Z,99.90
2023-05-05T02:25:09.855Z,99.90
2023-05-05T02:27:58.088Z,99.90
2023-05-05T02:30:29.286Z,99.90
2023-05-05T02:33:11.054Z,99.90
2023-05-05T02:35:44.117Z,99.90
2023-05-05T02:38:18.896Z,99.90
2023-05-05T02:40:52.304Z,99.90
2023-05-05T02:43:24.092Z,99.90
2023-05-05T02:45:58.216Z,99.90
2023-05-05T02:48:25.314Z,99.90
2023-05-05T02:50:53.227Z,99.90
2023-05-05T02:53:34.818Z,99.90
2023-05-05T02:56:13.915Z,99.90
2023-05-05T02:58:56.846Z,99.90
2023-05-05T03:02:08.269Z,99.90
2023-05-05T03:04:42.895Z,99.90
2023-05-05T03:07:21.070Z,99.90
2023-05-05T03:10:12.109Z,99.90
2023-05-05T03:12:51.806Z,99.90
2023-05-05T03:15:32.556Z,99.90
2023-05-05T03:18:03.853Z,99.90
2023-05-05T03:20:31.556Z,99.90
2023-05-05T03:23:04.151Z,99.90
2023-05-05T03:25:48.421Z,99.90
2023-05-05T03:28:32.248Z,99.90
2023-05-05T03:31:04.372Z,99.90
2023-05-05T03:33:33.536Z,99.90
2023-05-05T03:36:01.117Z,99.90
2023-05-05T03:38:28.098Z,99.90
2023-05-05T03:40:56.102Z,99.90
2023-05-05T03:43:25.594Z,99.90
2023-05-05T03:45:52.673Z,99.90
2023-05-05T03:48:19.837Z,99.90
2023-05-05T03:50:48.620Z,99.90
2023-05-05T03:53:17.183Z,99.90
2023-05-05T03:55:44.548Z,99.90
2023-05-05T03:58:12.427Z,99.90
2023-05-05T04:00:39.313Z,99.90
2023-05-05T04:03:06.774Z,99.90
2023-05-05T04:05:34.324Z,99.90
2023-05-05T04:08:01.299Z,99.90
2023-05-05T04:10:28.214Z,99.90
2023-05-05T04:12:55.529Z,99.90
2023-05-05T04:15:22.508Z,99.90
2023-05-05T04:17:49.741Z,99.90
2023-05-05T04:20:16.865Z,99.90
2023-05-05T04:22:44.355Z,99.90
2023-05-05T04:25:11.454Z,99.90
2023-05-05T04:27:38.354Z,99.90
2023-05-05T04:30:06.815Z,99.90
2023-05-05T04:32:35.892Z,99.90
2023-05-05T04:35:03.717Z,99.90
2023-05-05T04:37:30.632Z,99.90
2023-05-05T04:39:59.023Z,99.90
2023-05-05T04:42:25.967Z,99.90
2023-05-05T04:44:53.037Z,99.90
2023-05-05T04:47:19.987Z,99.90
2023-05-05T04:49:47.009Z,99.90
2023-05-05T04:52:14.136Z,99.90
2023-05-05T04:54:41.127Z,99.90
2023-05-05T04:57:07.985Z,99.90
2023-05-05T04:59:36.476Z,99.90
2023-05-05T05:02:03.400Z,99.90
2023-05-05T05:04:30.402Z,99.90
2023-05-05T05:06:59.120Z,99.90
2023-05-05T05:09:26.288Z,99.90
2023-05-05T05:11:54.114Z,99.90
2023-05-05T05:14:21.699Z,99.90
2023-05-05T05:16:52.151Z,99.90
2023-05-05T05:19:20.069Z,99.90
2023-05-05T05:21:46.970Z,99.90
2023-05-05T05:24:13.971Z,99.90
2023-05-05T05:26:40.933Z,99.90
2023-05-05T05:29:08.213Z,99.90
2023-05-05T05:31:36.696Z,99.90
2023-05-05T05:34:03.886Z,99.90
2023-05-05T05:36:32.069Z,99.90
2023-05-05T05:38:59.075Z,99.90
2023-05-05T05:41:26.391Z,99.90
2023-05-05T05:43:54.217Z,99.90
2023-05-05T05:46:21.605Z,99.90
2023-05-05T05:48:48.996Z,99.90
2023-05-05T05:51:16.067Z,99.90
2023-05-05T05:53:43.325Z,99.90
2023-05-05T05:56:10.286Z,99.90
2023-05-05T05:58:37.801Z,99.90
2023-05-05T06:01:05.115Z,99.90
2023-05-05T06:03:32.236Z,99.90
2023-05-05T06:05:59.210Z,99.90
2023-05-05T06:08:26.844Z,99.90
2023-05-05T06:10:55.353Z,99.90
2023-05-05T06:13:22.413Z,99.90
2023-05-05T06:15:51.529Z,99.90
2023-05-05T06:18:18.708Z,99.90
2023-05-05T06:20:49.263Z,99.90
2023-05-05T06:23:17.067Z,99.90
2023-05-05T06:25:48.972Z,99.90
2023-05-05T06:28:16.177Z,99.90
2023-05-05T06:30:43.151Z,99.90
2023-05-05T06:33:13.342Z,99.90
2023-05-05T06:35:43.481Z,99.90
2023-05-05T06:38:10.691Z,99.90
2023-05-05T06:40:37.504Z,99.90
2023-05-05T06:43:05.251Z,99.90
2023-05-05T06:45:41.946Z,99.90
2023-05-05T06:48:10.604Z,99.90
2023-05-05T06:50:37.487Z,99.90
2023-05-05T06:53:04.269Z,99.90
2023-05-05T06:55:31.568Z,99.90
2023-05-05T06:57:58.435Z,99.90
2023-05-05T07:00:25.548Z,99.90
2023-05-05T07:02:52.422Z,99.90
2023-05-05T07:05:19.501Z,99.90
2023-05-05T07:07:55.214Z,99.90
2023-05-05T07:10:23.740Z,99.90
2023-05-05T07:12:51.768Z,99.90
2023-05-05T07:15:27.346Z,99.90
2023-05-05T07:17:56.490Z,99.90
2023-05-05T07:20:24.264Z,99.90
2023-05-05T07:22:51.442Z,99.90
2023-05-05T07:25:18.656Z,99.90
2023-05-05T07:27:45.780Z,99.90
2023-05-05T07:30:16.339Z,99.90
2023-05-05T07:32:45.742Z,99.90
2023-05-05T07:35:12.788Z,99.90
2023-05-05T07:37:39.711Z,99.90
2023-05-05T07:40:08.005Z,99.90
2023-05-05T07:42:35.341Z,99.90
2023-05-05T07:45:02.375Z,99.90
2023-05-05T07:47:29.235Z,99.90
2023-05-05T07:49:56.177Z,99.90
2023-05-05T07:52:37.327Z,99.90
2023-05-05T07:55:10.640Z,99.90
2023-05-05T07:57:38.241Z,99.90
2023-05-05T08:00:06.309Z,99.90
2023-05-05T08:02:39.409Z,99.90
2023-05-05T08:05:07.449Z,99.90
2023-05-05T08:07:36.583Z,99.90
2023-05-05T08:10:03.685Z,99.90
2023-05-05T08:12:30.532Z,99.90
2023-05-05T08:14:57.485Z,99.90
2023-05-05T08:17:26.877Z,99.90
2023-05-05T08:19:53.859Z,99.80
2023-05-05T08:22:22.236Z,99.90
2023-05-05T08:24:49.035Z,99.90
2023-05-05T08:27:16.030Z,99.30
2023-05-05T08:29:43.153Z,97.60
2023-05-05T08:32:10.534Z,99.10
2023-05-05T08:34:37.489Z,99.40
2023-05-05T08:37:04.450Z,98.10
2023-05-05T08:39:31.547Z,97.10
2023-05-05T08:41:58.566Z,95.60
2023-05-05T08:44:26.951Z,95.90
2023-05-05T08:46:55.692Z,95.10
2023-05-05T08:49:23.642Z,91.10
2023-05-05T08:51:54.791Z,90.00
2023-05-05T08:54:27.143Z,88.20
2023-05-05T08:56:55.494Z,89.30
2023-05-05T08:59:25.144Z,87.80
2023-05-05T09:01:54.011Z,85.90
2023-05-05T09:04:21.388Z,85.40
2023-05-05T09:06:48.386Z,82.60
2023-05-05T09:09:15.590Z,79.90
2023-05-05T09:11:44.971Z,79.80
2023-05-05T09:14:15.025Z,79.80
2023-05-05T09:16:43.940Z,79.70
2023-05-05T09:19:11.560Z,78.80
2023-05-05T09:21:50.134Z,78.60
2023-05-05T09:24:17.085Z,79.00
2023-05-05T09:26:46.417Z,77.40
2023-05-05T09:29:21.286Z,77.80
2023-05-05T09:32:08.559Z,78.10
2023-05-05T09:34:36.596Z,77.20
2023-05-05T09:37:03.890Z,77.30
2023-05-05T09:39:30.906Z,79.60
2023-05-05T09:41:58.463Z,77.50
2023-05-05T09:44:36.994Z,74.50
2023-05-05T09:47:07.352Z,74.00
2023-05-05T09:49:41.859Z,74.40
2023-05-05T09:52:16.454Z,74.30
2023-05-05T09:54:44.223Z,73.80
2023-05-05T09:57:31.544Z,68.90
2023-05-05T10:00:01.481Z,68.30
2023-05-05T10:02:37.998Z,69.10
2023-05-05T10:05:13.061Z,68.20
2023-05-05T10:07:42.843Z,69.50
2023-05-05T10:10:17.337Z,68.20
2023-05-05T10:12:47.835Z,69.90
2023-05-05T10:15:16.837Z,67.10
2023-05-05T10:20:21.130Z,66.50
2023-05-05T10:22:53.457Z,65.70
2023-05-05T10:25:38.498Z,67.90
2023-05-05T10:28:12.055Z,67.20
2023-05-05T10:30:51.116Z,67.80
2023-05-05T10:33:55.977Z,67.50
2023-05-05T10:36:24.972Z,67.80
2023-05-05T10:38:59.108Z,66.50
2023-05-05T10:41:26.945Z,65.60
2023-05-05T10:44:00.411Z,64.10
2023-05-05T10:46:29.661Z,65.10
2023-05-05T10:49:34.436Z,65.40
2023-05-05T10:52:19.967Z,66.10
2023-05-05T10:55:05.576Z,67.00
2023-05-05T10:57:39.452Z,68.00
2023-05-05T11:00:12.188Z,67.50
2023-05-05T11:02:40.502Z,67.50
2023-05-05T11:05:18.560Z,66.80
2023-05-05T11:07:49.994Z,67.50
2023-05-05T11:10:23.371Z,68.20
2023-05-05T11:13:00.092Z,69.10
2023-05-05T11:15:27.329Z,68.20
2023-05-05T11:18:00.002Z,68.40
2023-05-05T11:20:36.257Z,70.00
2023-05-05T11:23:03.310Z,70.00
2023-05-05T11:25:42.100Z,69.70
2023-05-05T11:28:12.296Z,70.10
2023-05-05T11:31:01.879Z,70.50
2023-05-05T11:33:33.906Z,70.30
2023-05-05T11:36:07.126Z,72.50
2023-05-05T11:39:09.971Z,73.20
2023-05-05T11:42:02.288Z,71.70
2023-05-05T11:44:35.722Z,72.40
2023-05-05T11:47:05.407Z,73.90
2023-05-05T11:49:34.386Z,72.80
2023-05-05T11:52:09.120Z,72.50
2023-05-05T11:54:40.518Z,73.10
2023-05-05T11:57:09.026Z,73.90
2023-05-05T12:00:09.824Z,73.60
2023-05-05T12:02:41.239Z,73.70
2023-05-05T12:05:10.727Z,72.60
2023-05-05T12:07:43.451Z,73.30
2023-05-05T12:10:17.183Z,73.50
2023-05-05T12:12:44.423Z,73.10
2023-05-05T12:15:38.859Z,73.50
2023-05-05T12:18:23.354Z,74.40
2023-05-05T12:21:01.544Z,74.50
2023-05-05T12:24:07.325Z,75.20
2023-05-05T12:26:45.713Z,75.30
2023-05-05T12:29:48.180Z,75.40
2023-05-05T12:32:37.778Z,76.70
2023-05-05T12:35:21.150Z,80.80
2023-05-05T12:37:57.369Z,84.40
2023-05-05T12:40:55.606Z,87.10
2023-05-05T12:43:55.014Z,89.40
2023-05-05T12:46:47.046Z,90.10
2023-05-05T12:49:19.517Z,90.10
2023-05-05T12:52:16.710Z,91.30
2023-05-05T12:55:08.984Z,91.30
2023-05-05T12:58:19.795Z,90.30
2023-05-05T13:01:21.121Z,90.30
2023-05-05T13:04:30.565Z,90.20
2023-05-05T13:07:40.894Z,90.80
2023-05-05T13:10:27.267Z,90.10
2023-05-05T13:13:24.085Z,90.00
2023-05-05T13:15:51.019Z,90.30
2023-05-05T13:18:18.049Z,90.70
2023-05-05T13:20:45.093Z,90.30
2023-05-05T13:23:12.024Z,90.80
2023-05-05T13:25:38.862Z,90.90
2023-05-05T13:28:05.808Z,90.70
2023-05-05T13:30:32.796Z,90.80
2023-05-05T13:32:59.741Z,90.60
2023-05-05T13:35:26.638Z,90.30
2023-05-05T13:37:53.509Z,90.20
2023-05-05T13:40:20.360Z,90.80
2023-05-05T13:42:47.318Z,89.40
2023-05-05T13:45:14.215Z,90.00
2023-05-05T13:47:42.035Z,90.10
2023-05-05T13:50:09.326Z,90.30
2023-05-05T13:52:36.325Z,90.20
2023-05-05T13:55:03.489Z,91.90
2023-05-05T13:57:30.376Z,94.30
2023-05-05T13:59:57.274Z,96.90
2023-05-05T14:02:24.175Z,97.30
2023-05-05T14:04:51.108Z,98.20
2023-05-05T14:07:17.936Z,99.60
2023-05-05T14:09:45.654Z,99.90
2023-05-05T14:12:12.806Z,99.90
2023-05-05T14:14:40.157Z,99.90
2023-05-05T14:17:09.339Z,99.90
2023-05-05T14:19:36.970Z,99.90
2023-05-05T14:22:04.013Z,99.90
2023-05-05T14:24:31.023Z,99.90
2023-05-05T14:26:57.916Z,99.90
2023-05-05T14:29:24.795Z,99.90
2023-05-05T14:31:52.198Z,99.90
2023-05-05T14:34:19.102Z,99.90
2023-05-05T14:36:46.209Z,99.90
2023-05-05T14:39:13.192Z,99.90
2023-05-05T14:41:40.593Z,99.90
2023-05-05T14:44:07.482Z,99.90
2023-05-05T14:46:34.486Z,99.90
2023-05-05T14:49:01.376Z,99.90
2023-05-05T14:51:28.265Z,99.90
2023-05-05T14:53:55.182Z,99.90
2023-05-05T14:56:23.702Z,99.90
2023-05-05T14:58:50.735Z,99.90
2023-05-05T15:01:17.644Z,99.90
2023-05-05T15:03:44.732Z,99.90
2023-05-05T15:06:11.850Z,99.90
2023-05-05T15:08:41.383Z,99.90
2023-05-05T15:11:11.328Z,99.90
2023-05-05T15:13:40.097Z,99.90
2023-05-05T15:16:08.536Z,99.90
2023-05-05T15:18:35.616Z,99.90
2023-05-05T15:21:02.599Z,99.90
2023-05-05T15:23:29.473Z,99.90
2023-05-05T15:25:56.481Z,99.90
2023-05-05T15:28:24.576Z,99.90
2023-05-05T15:30:51.457Z,99.90
2023-05-05T15:33:18.334Z,99.90
2023-05-05T15:35:45.837Z,99.90
2023-05-05T15:38:12.772Z,99.90
2023-05-05T15:40:39.708Z,99.90
2023-05-05T15:43:06.852Z,99.90
2023-05-05T15:45:34.344Z,99.90
2023-05-05T15:48:01.387Z,99.90
2023-05-05T15:50:28.312Z,99.90
2023-05-05T15:52:56.977Z,99.90
2023-05-05T15:55:24.171Z,99.90
2023-05-05T15:57:51.232Z,99.90
2023-05-05T16:00:18.757Z,99.90
2023-05-05T16:02:45.781Z,99.90
2023-05-05T16:05:12.955Z,99.90
2023-05-05T16:07:40.103Z,99.90
2023-05-05T16:10:08.524Z,99.90
2023-05-05T16:12:35.595Z,99.90
2023-05-05T16:15:03.044Z,99.90
2023-05-05T16:17:29.968Z,99.90
2023-05-05T16:19:56.822Z,99.90
2023-05-05T16:22:23.748Z,99.90
2023-05-05T16:24:50.636Z,99.90
2023-05-05T16:27:17.527Z,99.90
2023-05-05T16:29:44.441Z,99.90
2023-05-05T16:32:11.408Z,99.90
2023-05-05T16:34:38.331Z,99.90
2023-05-05T16:37:05.213Z,99.90
2023-05-05T16:39:33.000Z,99.90
2023-05-05T16:42:00.133Z,99.90
2023-05-05T16:44:27.022Z,99.90
2023-05-05T16:46:54.028Z,99.90
2023-05-05T16:49:21.092Z,99.90
2023-05-05T16:51:47.978Z,99.90
2023-05-05T16:54:14.844Z,99.90
2023-05-05T16:56:41.844Z,99.90
2023-05-05T16:59:08.843Z,99.90
2023-05-05T17:01:36.046Z,99.90
2023-05-05T17:04:03.170Z,99.90
2023-05-05T17:06:33.430Z,99.90
2023-05-05T17:09:00.554Z,99.90
2023-05-05T17:11:27.738Z,99.90
2023-05-05T17:13:54.722Z,99.90
2023-05-05T17:16:22.251Z,99.90
2023-05-05T17:18:49.343Z,99.90
2023-05-05T17:21:16.257Z,99.90
2023-05-05T17:23:43.523Z,99.90
2023-05-05T17:26:10.488Z,99.90
2023-05-05T17:28:37.467Z,99.90
2023-05-05T17:31:04.446Z,99.90
2023-05-05T17:33:31.456Z,99.90
2023-05-05T17:35:58.350Z,99.90
2023-05-05T17:38:25.452Z,99.90
2023-05-05T17:40:52.343Z,99.90
2023-05-05T17:43:19.233Z,99.90
2023-05-05T17:45:46.705Z,99.90
2023-05-05T17:48:13.644Z,99.90
2023-05-05T17:50:42.686Z,99.90
2023-05-05T17:53:10.634Z,99.90
2023-05-05T17:55:37.560Z,99.90
2023-05-05T17:58:05.054Z,99.90
2023-05-05T18:00:31.894Z,99.90
2023-05-05T18:03:00.727Z,99.90
2023-05-05T18:05:27.835Z,99.90
2023-05-05T18:07:54.700Z,99.90
2023-05-05T18:10:21.634Z,99.90
2023-05-05T18:12:48.585Z,99.90
2023-05-05T18:15:15.520Z,99.90
2023-05-05T18:17:42.459Z,99.90
2023-05-05T18:20:10.237Z,99.90
2023-05-05T18:22:37.308Z,99.90
2023-05-05T18:25:05.952Z,99.90
2023-05-05T18:27:35.881Z,99.90
2023-05-05T18:30:04.704Z,99.90
2023-05-05T18:32:32.047Z,99.90
2023-05-05T18:34:59.001Z,99.90
2023-05-05T18:37:26.148Z,99.90
2023-05-05T18:39:52.986Z,99.90
2023-05-05T18:42:20.245Z,99.90
2023-05-05T18:44:47.036Z,99.90
2023-05-05T18:47:13.961Z,99.90
2023-05-05T18:49:40.813Z,99.90
2023-05-05T18:52:07.751Z,99.90
2023-05-05T18:54:36.224Z,99.90
2023-05-05T18:57:04.547Z,99.90
2023-05-05T18:59:31.428Z,99.90
2023-05-05T19:01:59.302Z,99.90
2023-05-05T19:04:31.207Z,99.90
2023-05-05T19:07:00.067Z,99.90
2023-05-05T19:09:27.748Z,99.90
2023-05-05T19:11:54.593Z,99.90
2023-05-05T19:14:22.800Z,99.90
2023-05-05T19:16:49.971Z,99.90
2023-05-05T19:19:17.064Z,99.90
2023-05-05T19:21:44.004Z,99.90
2023-05-05T19:24:11.608Z,99.90
2023-05-05T19:26:38.470Z,99.90
2023-05-05T19:29:05.441Z,99.90
2023-05-05T19:31:32.403Z,99.90
2023-05-05T19:34:04.691Z,99.90
2023-05-05T19:36:32.549Z,99.90
2023-05-05T19:39:04.423Z,99.90
2023-05-05T19:41:31.609Z,99.90
2023-05-05T19:43:58.614Z,99.90
2023-05-05T19:46:26.412Z,99.90
2023-05-05T19:48:53.751Z,99.90
2023-05-05T19:51:20.945Z,99.90
2023-05-05T19:53:47.908Z,99.90
2023-05-05T19:56:14.763Z,99.90
2023-05-05T19:59:00.378Z,99.90
2023-05-05T20:01:29.167Z,99.90
2023-05-05T20:03:57.000Z,99.90
2023-05-05T20:06:24.379Z,99.90
2023-05-05T20:08:51.550Z,99.90
2023-05-05T20:11:19.684Z,99.90
2023-05-05T20:13:47.149Z,99.90
2023-05-05T20:16:14.742Z,99.90
2023-05-05T20:18:41.616Z,99.90
2023-05-05T20:21:11.561Z,99.90
2023-05-05T20:23:38.551Z,99.90
2023-05-05T20:26:06.387Z,99.90
2023-05-05T20:28:33.925Z,99.90
2023-05-05T20:31:01.063Z,99.90
2023-05-05T20:33:28.899Z,99.90
2023-05-05T20:35:55.871Z,99.90
2023-05-05T20:38:22.962Z,99.90
2023-05-05T20:40:50.717Z,99.90
2023-05-05T20:43:18.065Z,99.90
2023-05-05T20:45:45.344Z,99.90
2023-05-05T20:48:12.321Z,99.90
2023-05-05T20:50:41.354Z,99.90
2023-05-05T20:53:10.465Z,99.90
2023-05-05T20:55:37.448Z,99.90
2023-05-05T20:58:05.474Z,99.90
2023-05-05T21:00:32.738Z,99.90
2023-05-05T21:02:59.798Z,99.90
2023-05-05T21:05:26.931Z,99.90
2023-05-05T21:07:54.610Z,99.90
2023-05-05T21:10:21.689Z,99.90
2023-05-05T21:12:49.109Z,99.90
2023-05-05T21:15:16.646Z,99.90
2023-05-05T21:17:43.934Z,99.90
2023-05-05T21:20:12.010Z,99.90
2023-05-05T21:22:39.240Z,99.90
2023-05-05T21:25:10.251Z,99.90
2023-05-05T21:27:37.181Z,99.90
2023-05-05T21:30:04.571Z,99.90
2023-05-05T21:32:31.478Z,99.90
2023-05-05T21:34:58.541Z,99.90
2023-05-05T21:37:25.771Z,99.90
2023-05-05T21:39:52.710Z,99.90
2023-05-05T21:42:19.544Z,99.90
2023-05-05T21:44:46.376Z,99.90
2023-05-05T21:47:13.201Z,99.90
2023-05-05T21:49:40.224Z,99.90
2023-05-05T21:52:07.108Z,99.90
2023-05-05T21:54:33.944Z,99.90
2023-05-05T21:57:00.832Z,99.90
2023-05-05T21:59:27.845Z,99.90
2023-05-05T22:01:54.898Z,99.90
2023-05-05T22:04:22.157Z,99.90
2023-05-05T22:06:49.055Z,99.90
2023-05-05T22:09:16.234Z,99.90
2023-05-05T22:11:43.272Z,99.90
2023-05-05T22:14:10.342Z,99.90
2023-05-05T22:16:37.181Z,99.90
2023-05-05T22:19:04.083Z,99.90
2023-05-05T22:21:31.522Z,99.90
2023-05-05T22:23:58.670Z,99.90
2023-05-05T22:26:25.884Z,99.90
2023-05-05T22:28:52.723Z,99.90
2023-05-05T22:31:19.591Z,99.90
2023-05-05T22:33:46.504Z,99.90
2023-05-05T22:36:14.142Z,99.90
2023-05-05T22:38:41.001Z,99.90
2023-05-05T22:41:08.122Z,99.90
2023-05-05T22:43:35.013Z,99.90
2023-05-05T22:46:01.888Z,99.90
2023-05-05T22:48:28.813Z,99.90
2023-05-05T22:50:57.105Z,99.90
2023-05-05T22:53:23.949Z,99.90
2023-05-05T22:55:51.701Z,99.90
2023-05-05T22:58:18.789Z,99.90
2023-05-05T23:00:45.769Z,99.90
2023-05-05T23:03:13.316Z,99.90
2023-05-05T23:05:40.159Z,99.90
2023-05-05T23:08:07.019Z,99.90
2023-05-05T23:10:33.870Z,99.90
2023-05-05T23:13:00.849Z,99.90
2023-05-05T23:15:28.603Z,99.90
2023-05-05T23:17:55.618Z,99.90
2023-05-05T23:20:22.656Z,99.90
2023-05-05T23:22:49.566Z,99.90
2023-05-05T23:25:16.540Z,99.90
2023-05-05T23:27:43.902Z,99.90
2023-05-05T23:30:11.521Z,99.90
2023-05-05T23:32:38.624Z,99.90
2023-05-05T23:35:06.653Z,99.90
2023-05-05T23:37:33.550Z,99.90
2023-05-05T23:40:00.527Z,99.90
2023-05-05T23:42:27.539Z,99.90
2023-05-05T23:44:54.376Z,99.90
2023-05-05T23:47:21.222Z,99.90
2023-05-05T23:49:48.249Z,99.90
2023-05-05T23:52:15.114Z,99.90
2023-05-05T23:54:42.141Z,99.90
2023-05-05T23:57:08.984Z,99.90
2023-05-05T23:59:35.803Z,99.90
